Time;durP1;ratioP1;P1;durP2;ratioP2;P2;SDS_P1;SDS_P2;PMS_P1;PMS_P2;Temp;Humidity;BMP_temperature;BMP_pressure;BME280_temperature;BME280_humidity;BME280_pressure;Samples;Min_cycle;Max_cycle;Signal;HPM_P1;HPM_P2
2022/09/10 00:01:48;;;;;;;4.90;2.38;;;14.80;99.90;;;;;;5071708;28;20032;-47
2022/09/10 00:04:15;;;;;;;6.10;2.20;;;14.80;99.90;;;;;;5071514;28;20496;-46
2022/09/10 00:06:41;;;;;;;3.03;1.92;;;14.80;99.90;;;;;;5071823;28;20504;-47
2022/09/10 00:09:08;;;;;;;4.57;3.10;;;14.80;99.90;;;;;;5071657;28;20028;-45
2022/09/10 00:11:34;;;;;;;8.32;2.03;;;14.80;99.90;;;;;;5071685;28;20047;-44
2022/09/10 00:14:02;;;;;;;3.85;2.22;;;14.70;99.90;;;;;;5071297;28;20035;-43
2022/09/10 00:16:28;;;;;;;3.30;2.30;;;14.80;99.90;;;;;;5071656;28;20611;-41
2022/09/10 00:18:56;;;;;;;4.13;2.15;;;14.80;99.90;;;;;;5071531;28;20036;-45
2022/09/10 00:21:21;;;;;;;5.40;2.40;;;14.80;99.90;;;;;;5071665;28;20512;-43
2022/09/10 00:23:48;;;;;;;5.28;2.20;;;14.80;99.90;;;;;;5071441;28;20035;-47
2022/09/10 00:26:20;;;;;;;6.25;2.97;;;14.80;99.90;;;;;;5071541;28;20602;-43
2022/09/10 00:28:47;;;;;;;6.32;2.58;;;14.80;99.90;;;;;;5071371;28;20024;-45
2022/09/10 00:31:14;;;;;;;4.20;2.15;;;14.80;99.90;;;;;;5071201;28;20082;-46
2022/09/10 00:33:40;;;;;;;4.38;2.58;;;14.80;99.90;;;;;;5071077;28;20013;-45
2022/09/10 00:36:23;;;;;;;5.43;2.00;;;14.80;99.90;;;;;;5071424;28;20020;-45
2022/09/10 00:38:50;;;;;;;4.00;2.05;;;14.80;99.90;;;;;;5053069;28;20127;-47
2022/09/10 00:41:17;;;;;;;6.13;2.20;;;14.70;99.90;;;;;;5074098;28;20438;-43
2022/09/10 00:43:56;;;;;;;6.30;2.13;;;14.70;99.90;;;;;;5077618;28;20115;-46
2022/09/10 00:46:31;;;;;;;6.03;2.70;;;14.80;99.90;;;;;;5078218;28;20487;-44
2022/09/10 00:49:01;;;;;;;5.15;2.17;;;14.80;99.90;;;;;;5077820;28;20508;-43
2022/09/10 00:51:29;;;;;;;3.55;2.00;;;14.80;99.90;;;;;;5077786;28;20025;-44
2022/09/10 00:53:55;;;;;;;3.13;2.08;;;14.80;99.90;;;;;;5077661;28;20016;-45
2022/09/10 00:56:21;;;;;;;2.22;2.03;;;14.80;99.90;;;;;;5077885;28;20506;-44
2022/09/10 00:58:48;;;;;;;12.57;2.47;;;14.80;99.90;;;;;;5077612;28;20033;-44
2022/09/10 01:01:14;;;;;;;6.60;2.10;;;14.80;99.90;;;;;;5077733;28;20059;-43
2022/09/10 01:03:42;;;;;;;6.07;2.63;;;14.90;99.90;;;;;;5077478;28;20069;-43
2022/09/10 01:06:08;;;;;;;8.60;2.05;;;14.90;99.90;;;;;;5077822;28;20020;-45
2022/09/10 01:08:33;;;;;;;4.82;2.03;;;14.90;99.90;;;;;;5078012;28;20354;-43
2022/09/10 01:11:41;;;;;;;5.47;3.05;;;14.90;99.90;;;;;;5077671;28;20025;-43
2022/09/10 01:14:44;;;;;;;7.70;2.83;;;15.00;99.90;;;;;;5078193;28;20024;-42
2022/09/10 01:17:32;;;;;;;6.55;2.40;;;15.00;99.90;;;;;;5078578;28;20059;-43
2022/09/10 01:20:14;;;;;;;5.00;2.78;;;15.00;99.90;;;;;;5078435;28;20032;-43
2022/09/10 01:23:03;;;;;;;5.93;2.92;;;14.90;99.90;;;;;;5077424;28;20020;-42
2022/09/10 01:25:29;;;;;;;7.03;2.80;;;14.90;99.90;;;;;;5077397;28;20111;-47
2022/09/10 01:27:58;;;;;;;8.20;2.78;;;14.90;99.90;;;;;;5077716;28;20115;-45
2022/09/10 01:30:30;;;;;;;4.78;2.90;;;14.80;99.90;;;;;;5077420;28;20103;-48
2022/09/10 01:33:22;;;;;;;6.32;2.50;;;14.70;99.90;;;;;;5077190;28;20040;-47
2022/09/10 01:35:55;;;;;;;4.70;2.50;;;14.80;99.90;;;;;;5077497;28;20020;-48
2022/09/10 01:38:30;;;;;;;10.60;3.17;;;14.70;99.90;;;;;;5077485;28;20063;-44
2022/09/10 01:40:57;;;;;;;3.20;2.50;;;14.70;99.90;;;;;;5077335;28;20028;-44
2022/09/10 01:43:23;;;;;;;10.95;2.47;;;14.70;99.90;;;;;;5077112;28;20020;-44
2022/09/10 01:45:57;;;;;;;5.60;2.67;;;14.70;99.90;;;;;;5077314;28;20496;-45
2022/09/10 01:48:38;;;;;;;11.63;2.67;;;14.70;99.90;;;;;;5077362;28;20087;-44
2022/09/10 01:51:56;;;;;;;8.20;2.80;;;14.70;99.90;;;;;;5077752;28;20444;-43
2022/09/10 01:54:41;;;;;;;5.75;2.47;;;14.70;99.90;;;;;;4974069;28;20118;-44
2022/09/10 01:57:32;;;;;;;4.28;2.72;;;14.70;99.90;;;;;;5074244;28;20021;-40
2022/09/10 02:00:08;;;;;;;5.00;2.47;;;14.70;99.90;;;;;;5074773;28;20025;-43
2022/09/10 02:03:00;;;;;;;4.53;2.45;;;14.70;99.90;;;;;;5075670;28;20036;-43
2022/09/10 02:05:29;;;;;;;6.72;2.55;;;14.70;99.90;;;;;;5074006;28;20032;-44
2022/09/10 02:08:02;;;;;;;7.30;2.60;;;14.70;99.90;;;;;;5073846;28;20028;-43
2022/09/10 02:10:28;;;;;;;6.03;2.55;;;14.70;99.90;;;;;;5073699;28;20025;-43
2022/09/10 02:12:54;;;;;;;5.53;2.03;;;14.70;99.90;;;;;;5073434;28;20042;-45
2022/09/10 02:15:23;;;;;;;6.22;2.75;;;14.70;99.90;;;;;;5073662;28;20100;-47
2022/09/10 02:17:51;;;;;;;6.10;1.90;;;14.70;99.90;;;;;;5073709;28;20054;-44
2022/09/10 02:20:18;;;;;;;3.08;2.10;;;14.70;99.90;;;;;;5073521;28;20446;-44
2022/09/10 02:22:57;;;;;;;5.95;2.35;;;14.80;99.90;;;;;;5073239;28;20078;-43
2022/09/10 02:25:24;;;;;;;4.35;1.70;;;14.80;99.90;;;;;;5073551;28;20369;-44
2022/09/10 02:27:50;;;;;;;2.03;1.83;;;14.70;99.90;;;;;;5073685;28;20104;-44
2022/09/10 02:30:15;;;;;;;5.15;2.00;;;14.70;99.90;;;;;;5073509;28;20095;-44
2022/09/10 02:32:41;;;;;;;9.50;2.25;;;14.70;99.90;;;;;;5073556;28;20025;-44
2022/09/10 02:35:07;;;;;;;4.28;1.70;;;14.70;99.90;;;;;;5073339;28;20036;-42
2022/09/10 02:37:33;;;;;;;2.88;1.73;;;14.70;99.90;;;;;;5073549;28;20042;-44
2022/09/10 02:39:58;;;;;;;5.43;1.70;;;14.60;99.90;;;;;;5073137;28;20086;-44
2022/09/10 02:42:25;;;;;;;25.08;2.63;;;14.60;99.90;;;;;;5072999;28;20021;-44
2022/09/10 02:44:50;;;;;;;5.13;1.92;;;14.60;99.90;;;;;;5073022;28;20127;-42
2022/09/10 02:47:17;;;;;;;2.78;1.63;;;14.60;99.90;;;;;;5073152;28;20104;-43
2022/09/10 02:49:42;;;;;;;2.70;1.63;;;14.60;99.90;;;;;;5072946;28;20080;-47
2022/09/10 02:52:08;;;;;;;7.10;1.77;;;14.60;99.90;;;;;;5072699;28;20127;-47
2022/09/10 02:54:33;;;;;;;4.22;1.88;;;14.60;99.90;;;;;;5073020;28;20059;-44
2022/09/10 02:56:59;;;;;;;3.08;1.83;;;14.60;99.90;;;;;;5072981;28;20088;-43
2022/09/10 02:59:25;;;;;;;5.18;1.70;;;14.50;99.90;;;;;;5072580;28;20025;-44
2022/09/10 03:01:52;;;;;;;3.30;1.90;;;14.50;99.90;;;;;;5072575;28;20107;-44
2022/09/10 03:04:17;;;;;;;7.85;1.98;;;14.50;99.90;;;;;;5072632;28;20449;-46
2022/09/10 03:06:43;;;;;;;5.90;2.20;;;14.50;99.90;;;;;;5072851;28;20115;-45
2022/09/10 03:09:10;;;;;;;7.93;2.20;;;14.50;99.90;;;;;;5073036;28;20515;-44
2022/09/10 03:11:39;;;;;;;2.67;2.13;;;14.50;99.90;;;;;;5072382;28;20099;-43
2022/09/10 03:14:05;;;;;;;5.97;1.70;;;14.50;99.90;;;;;;5072262;28;20012;-44
2022/09/10 03:16:31;;;;;;;2.78;1.75;;;14.50;99.90;;;;;;5072451;28;20047;-45
2022/09/10 03:18:56;;;;;;;5.45;1.90;;;14.50;99.90;;;;;;5072517;28;20020;-46
2022/09/10 03:21:23;;;;;;;5.43;1.90;;;14.50;99.90;;;;;;5072482;28;20502;-44
2022/09/10 03:23:51;;;;;;;4.65;1.83;;;14.50;99.90;;;;;;5072152;28;20602;-44
2022/09/10 03:26:18;;;;;;;5.82;2.00;;;14.60;99.90;;;;;;5072509;28;20028;-44
2022/09/10 03:28:45;;;;;;;3.22;1.70;;;14.60;99.90;;;;;;5072802;28;20050;-44
2022/09/10 03:31:12;;;;;;;6.88;2.25;;;14.60;99.90;;;;;;5072129;28;20488;-43
2022/09/10 03:33:38;;;;;;;4.88;2.30;;;14.60;99.90;;;;;;5072039;28;20024;-45
2022/09/10 03:36:04;;;;;;;6.35;2.13;;;14.60;99.90;;;;;;5072557;28;20418;-46
2022/09/10 03:38:31;;;;;;;4.07;1.85;;;14.60;99.90;;;;;;5072590;28;20024;-48
2022/09/10 03:40:56;;;;;;;3.50;1.95;;;14.60;99.90;;;;;;5072147;28;20024;-44
2022/09/10 03:43:22;;;;;;;7.18;1.92;;;14.60;99.90;;;;;;5071915;28;20420;-44
2022/09/10 03:45:49;;;;;;;4.85;2.13;;;14.60;99.90;;;;;;5073236;28;20032;-44
2022/09/10 03:48:15;;;;;;;2.10;1.92;;;14.60;99.90;;;;;;5072742;28;20020;-45
2022/09/10 03:50:43;;;;;;;7.38;2.05;;;14.60;99.90;;;;;;5054105;28;20143;-44
2022/09/10 03:53:09;;;;;;;9.35;1.95;;;14.70;99.90;;;;;;5071656;28;20021;-49
2022/09/10 03:55:35;;;;;;;8.23;2.40;;;14.60;99.90;;;;;;5053965;28;20106;-45
2022/09/10 03:58:00;;;;;;;3.67;2.13;;;14.60;99.90;;;;;;5071603;28;20024;-45
2022/09/10 04:00:26;;;;;;;4.90;2.05;;;14.70;99.90;;;;;;5071903;28;20554;-44
2022/09/10 04:02:52;;;;;;;2.08;1.88;;;14.70;99.90;;;;;;5071386;28;20024;-42
2022/09/10 04:05:18;;;;;;;3.75;1.95;;;14.70;99.90;;;;;;5071716;28;20103;-44
2022/09/10 04:07:44;;;;;;;4.80;1.88;;;14.80;99.90;;;;;;5071511;28;20522;-44
2022/09/10 04:10:09;;;;;;;5.40;2.60;;;14.80;99.90;;;;;;5071738;28;20108;-46
2022/09/10 04:12:35;;;;;;;5.57;2.75;;;14.70;99.90;;;;;;5091742;22;20040;-44
2022/09/10 04:15:03;;;;;;;7.07;2.60;;;14.80;99.90;;;;;;5071567;28;20079;-45
2022/09/10 04:17:28;;;;;;;6.00;2.65;;;14.80;99.90;;;;;;5071153;28;20024;-49
2022/09/10 04:19:54;;;;;;;3.33;2.70;;;14.80;99.90;;;;;;5071547;28;20103;-50
2022/09/10 04:22:20;;;;;;;3.80;2.60;;;14.80;99.90;;;;;;5071216;28;20020;-43
2022/09/10 04:24:46;;;;;;;6.68;2.53;;;14.70;99.90;;;;;;5071487;28;20029;-50
2022/09/10 04:27:12;;;;;;;5.93;2.92;;;14.80;99.90;;;;;;5071435;28;20025;-47
2022/09/10 04:29:38;;;;;;;7.20;2.63;;;14.80;99.90;;;;;;5071451;28;20020;-46
2022/09/10 04:32:03;;;;;;;3.08;2.63;;;14.90;99.90;;;;;;5070914;28;20016;-46
2022/09/10 04:34:29;;;;;;;3.20;2.70;;;14.90;99.90;;;;;;5071364;28;20068;-48
2022/09/10 04:36:54;;;;;;;10.27;2.90;;;14.80;99.90;;;;;;5071190;28;20435;-44
2022/09/10 04:39:20;;;;;;;7.55;2.60;;;14.90;99.90;;;;;;5071522;28;20273;-45
2022/09/10 04:41:45;;;;;;;6.75;2.60;;;14.90;99.90;;;;;;5071319;28;20028;-45
2022/09/10 04:44:11;;;;;;;5.57;2.20;;;14.90;99.90;;;;;;5071359;28;20036;-48
2022/09/10 04:46:36;;;;;;;6.00;2.65;;;14.90;99.90;;;;;;5053147;28;20029;-45
2022/09/10 04:49:02;;;;;;;5.25;2.83;;;14.90;99.90;;;;;;5071137;28;20025;-45
2022/09/10 04:51:27;;;;;;;7.70;3.38;;;14.90;99.90;;;;;;5071337;28;20028;-46
2022/09/10 04:53:53;;;;;;;5.70;3.47;;;14.90;99.90;;;;;;5052899;28;20492;-47
2022/09/10 04:56:19;;;;;;;9.30;3.38;;;15.40;99.90;;;;;;5071112;28;20030;-42
2022/09/10 04:58:45;;;;;;;4.30;3.08;;;14.90;99.90;;;;;;5070950;28;20155;-45
2022/09/10 05:01:11;;;;;;;7.28;3.60;;;14.90;99.90;;;;;;5071214;28;20559;-43
2022/09/10 05:03:37;;;;;;;7.38;3.22;;;14.90;99.90;;;;;;5070688;28;20119;-45
2022/09/10 05:06:04;;;;;;;3.92;2.65;;;14.90;99.90;;;;;;5070902;28;20076;-43
2022/09/10 05:08:29;;;;;;;5.85;3.10;;;14.90;99.90;;;;;;5071032;28;20029;-46
2022/09/10 05:10:55;;;;;;;8.05;2.95;;;14.90;99.90;;;;;;5053036;28;20028;-43
2022/09/10 05:13:21;;;;;;;10.63;4.32;;;14.90;99.90;;;;;;5070529;28;20047;-49
2022/09/10 05:15:46;;;;;;;5.65;2.70;;;14.90;99.90;;;;;;5071071;28;20032;-49
2022/09/10 05:18:12;;;;;;;5.60;3.15;;;14.90;99.90;;;;;;5071408;28;20192;-43
2022/09/10 05:20:37;;;;;;;4.05;3.30;;;14.90;99.90;;;;;;5071152;28;20028;-43
2022/09/10 05:23:03;;;;;;;5.45;2.90;;;15.00;99.90;;;;;;5070314;28;20025;-46
2022/09/10 05:25:29;;;;;;;4.25;2.67;;;14.90;99.90;;;;;;5070930;28;20254;-46
2022/09/10 05:27:55;;;;;;;9.82;3.15;;;14.90;99.90;;;;;;5072998;28;20484;-43
2022/09/10 05:30:20;;;;;;;3.85;3.45;;;15.00;99.90;;;;;;5074541;28;20090;-42
2022/09/10 05:32:46;;;;;;;6.57;3.25;;;15.00;99.90;;;;;;5074118;28;20021;-47
2022/09/10 05:35:12;;;;;;;9.73;3.05;;;15.00;99.90;;;;;;5074509;28;20142;-48
2022/09/10 05:37:38;;;;;;;8.93;3.50;;;15.00;99.90;;;;;;5074592;28;20081;-48
2022/09/10 05:40:08;;;;;;;6.03;3.25;;;15.10;99.90;;;;;;5074426;28;20119;-45
2022/09/10 05:42:34;;;;;;;9.63;4.28;;;15.10;99.90;;;;;;5074019;28;20030;-43
2022/09/10 05:45:00;;;;;;;6.40;3.10;;;15.10;99.90;;;;;;5074316;28;20024;-43
2022/09/10 05:47:27;;;;;;;5.63;2.70;;;15.10;99.90;;;;;;5074158;28;20082;-43
2022/09/10 05:49:53;;;;;;;6.57;2.83;;;15.20;99.90;;;;;;5057153;28;20403;-47
2022/09/10 05:52:18;;;;;;;6.30;3.05;;;15.20;99.90;;;;;;5073958;28;20026;-48
2022/09/10 05:54:44;;;;;;;3.55;2.60;;;15.20;99.90;;;;;;5056426;28;20240;-43
2022/09/10 05:57:09;;;;;;;3.58;2.65;;;15.20;99.90;;;;;;5056278;28;20035;-45
2022/09/10 05:59:35;;;;;;;6.82;2.90;;;15.20;99.90;;;;;;5073409;28;20024;-43
2022/09/10 06:02:01;;;;;;;9.23;3.05;;;15.30;99.90;;;;;;5073799;28;20028;-43
2022/09/10 06:04:26;;;;;;;4.55;2.97;;;15.30;99.90;;;;;;5074048;28;20443;-43
2022/09/10 06:06:53;;;;;;;6.43;2.72;;;15.30;99.90;;;;;;5073923;28;20025;-44
2022/09/10 06:09:18;;;;;;;6.50;2.47;;;15.30;99.90;;;;;;5073882;28;20021;-45
2022/09/10 06:11:47;;;;;;;3.67;2.28;;;15.20;99.90;;;;;;5073823;28;20503;-44
2022/09/10 06:14:13;;;;;;;3.65;2.65;;;15.20;99.90;;;;;;5073695;28;20035;-44
2022/09/10 06:16:39;;;;;;;7.60;3.25;;;15.20;99.90;;;;;;5073951;28;20103;-44
2022/09/10 06:19:05;;;;;;;5.85;2.63;;;15.20;99.90;;;;;;5073931;28;20028;-43
2022/09/10 06:21:31;;;;;;;7.97;2.15;;;15.20;99.90;;;;;;5074150;28;20028;-46
2022/09/10 06:23:57;;;;;;;5.68;2.10;;;15.20;99.90;;;;;;5056345;28;20484;-48
2022/09/10 06:26:22;;;;;;;4.53;2.50;;;15.20;99.90;;;;;;5073696;28;20035;-48
2022/09/10 06:28:52;;;;;;;8.32;2.40;;;15.20;99.90;;;;;;5073582;28;20016;-48
2022/09/10 06:31:18;;;;;;;5.72;2.47;;;15.20;99.90;;;;;;5055654;28;20029;-43
2022/09/10 06:33:45;;;;;;;2.63;2.13;;;15.20;99.90;;;;;;5073337;28;20024;-44
2022/09/10 06:36:12;;;;;;;2.65;2.28;;;15.10;99.90;;;;;;5074816;28;20025;-45
2022/09/10 06:38:38;;;;;;;2.50;2.30;;;15.20;99.90;;;;;;5072894;28;20118;-47
2022/09/10 06:41:06;;;;;;;6.68;2.60;;;15.30;99.90;;;;;;5073389;28;20028;-47
2022/09/10 06:43:35;;;;;;;7.57;2.38;;;15.30;99.90;;;;;;5073060;28;20024;-43
2022/09/10 06:46:04;;;;;;;5.53;2.28;;;15.40;99.90;;;;;;5073340;28;20147;-46
2022/09/10 06:48:30;;;;;;;7.88;2.35;;;15.30;99.90;;;;;;5072965;28;20034;-48
2022/09/10 06:50:59;;;;;;;5.10;2.40;;;15.40;99.90;;;;;;5073237;28;20104;-46
2022/09/10 06:53:27;;;;;;;4.68;2.50;;;15.30;99.90;;;;;;5072782;28;20056;-47
2022/09/10 06:55:54;;;;;;;5.47;2.45;;;15.30;99.90;;;;;;5073080;28;20484;-43
2022/09/10 06:58:22;;;;;;;4.32;2.42;;;15.30;99.90;;;;;;5072461;28;20042;-44
2022/09/10 07:00:48;;;;;;;3.63;2.40;;;15.30;99.90;;;;;;5074015;28;20100;-43
2022/09/10 07:03:15;;;;;;;8.23;2.67;;;15.40;99.90;;;;;;5074334;28;20483;-45
2022/09/10 07:05:41;;;;;;;5.72;3.22;;;15.30;99.90;;;;;;5074309;28;20028;-43
2022/09/10 07:08:09;;;;;;;6.25;2.92;;;15.40;99.90;;;;;;5073165;28;20043;-42
2022/09/10 07:10:36;;;;;;;4.00;2.75;;;15.40;99.90;;;;;;5073676;28;20020;-46
2022/09/10 07:13:01;;;;;;;8.93;2.90;;;15.40;99.90;;;;;;5074136;28;20020;-44
2022/09/10 07:15:27;;;;;;;5.78;2.63;;;15.40;99.90;;;;;;5074522;28;20055;-44
2022/09/10 07:17:53;;;;;;;4.60;2.80;;;15.40;99.90;;;;;;5075486;28;20060;-48
2022/09/10 07:20:22;;;;;;;4.70;2.58;;;15.50;99.90;;;;;;5073434;28;20404;-53
2022/09/10 07:22:50;;;;;;;8.35;2.65;;;15.50;99.90;;;;;;5072297;28;20371;-47
2022/09/10 07:25:16;;;;;;;3.53;2.38;;;15.60;99.90;;;;;;5072752;28;20484;-47
2022/09/10 07:27:41;;;;;;;10.13;2.40;;;15.60;99.90;;;;;;5054575;28;20035;-49
2022/09/10 07:30:07;;;;;;;3.53;1.98;;;15.50;99.90;;;;;;5072521;28;20432;-50
2022/09/10 07:32:34;;;;;;;8.77;2.33;;;15.60;99.90;;;;;;5072283;28;20138;-46
2022/09/10 07:34:59;;;;;;;4.93;2.22;;;15.60;99.90;;;;;;5072230;28;20427;-46
2022/09/10 07:37:25;;;;;;;4.45;2.10;;;15.70;99.90;;;;;;5072431;28;20099;-49
2022/09/10 07:39:50;;;;;;;3.70;1.75;;;15.80;99.90;;;;;;5072325;28;20515;-48
2022/09/10 07:42:16;;;;;;;4.97;2.28;;;16.00;99.90;;;;;;5071817;28;20476;-49
2022/09/10 07:44:42;;;;;;;2.97;1.92;;;16.30;99.90;;;;;;5071987;28;20025;-49
2022/09/10 07:47:07;;;;;;;6.13;1.95;;;16.60;99.90;;;;;;5071888;28;20075;-45
2022/09/10 07:49:33;;;;;;;4.68;1.33;;;17.40;99.90;;;;;;5071816;28;20503;-47
2022/09/10 07:51:58;;;;;;;7.30;1.27;;;18.00;99.90;;;;;;5071680;28;20022;-45
2022/09/10 07:54:24;;;;;;;5.93;1.20;;;18.20;99.90;;;;;;5073410;28;20025;-43
2022/09/10 07:56:50;;;;;;;2.30;1.48;;;18.10;99.90;;;;;;5072685;28;20025;-40
2022/09/10 07:59:15;;;;;;;2.30;1.42;;;17.80;99.90;;;;;;5072836;28;20029;-45
2022/09/10 08:01:41;;;;;;;5.85;1.60;;;17.60;99.90;;;;;;5072593;28;20028;-50
2022/09/10 08:04:06;;;;;;;3.42;1.55;;;17.40;99.90;;;;;;5071500;28;20059;-45
2022/09/10 08:06:32;;;;;;;6.85;1.77;;;17.30;99.90;;;;;;5071942;28;20540;-45
2022/09/10 08:08:58;;;;;;;3.10;1.58;;;17.30;99.90;;;;;;5071846;28;20494;-46
2022/09/10 08:11:25;;;;;;;3.75;1.73;;;17.40;99.90;;;;;;5071656;28;20020;-45
2022/09/10 08:13:52;;;;;;;2.85;1.58;;;17.80;99.90;;;;;;5071528;28;20101;-44
2022/09/10 08:16:21;;;;;;;7.57;1.55;;;18.20;99.90;;;;;;5071765;28;20028;-49
2022/09/10 08:18:48;;;;;;;4.50;1.88;;;18.40;99.90;;;;;;5054405;28;20032;-45
2022/09/10 08:21:15;;;;;;;7.97;1.70;;;18.50;99.90;;;;;;5072078;28;20465;-46
2022/09/10 08:23:40;;;;;;;9.25;2.00;;;18.30;99.90;;;;;;5071351;28;20052;-45
2022/09/10 08:26:07;;;;;;;7.93;2.03;;;18.20;99.90;;;;;;5071752;28;20117;-51
2022/09/10 08:28:36;;;;;;;5.93;1.90;;;18.00;99.90;;;;;;5071888;28;20021;-49
2022/09/10 08:31:07;;;;;;;3.22;1.70;;;17.90;99.90;;;;;;5071797;28;20055;-44
2022/09/10 08:33:34;;;;;;;7.95;2.10;;;17.70;99.90;;;;;;5071611;28;20372;-45
2022/09/10 08:36:01;;;;;;;8.38;2.10;;;17.50;99.90;;;;;;5071877;28;20103;-42
2022/09/10 08:38:32;;;;;;;4.15;1.80;;;17.40;99.90;;;;;;5071631;28;20037;-44
2022/09/10 08:40:59;;;;;;;7.88;1.73;;;17.30;99.90;;;;;;5072334;28;20491;-44
2022/09/10 08:43:39;;;;;;;7.18;2.45;;;17.50;99.90;;;;;;5071469;28;20035;-43
2022/09/10 08:46:15;;;;;;;7.53;2.40;;;17.30;99.90;;;;;;5071624;28;20016;-47
2022/09/10 08:48:42;;;;;;;;;;;17.30;99.90;;;;;;5071928;28;20509;-45
2022/09/10 08:51:25;;;;;;;5.88;2.00;;;17.20;99.90;;;;;;5071597;28;19904;-46
2022/09/10 08:54:04;;;;;;;2.92;2.20;;;17.20;99.90;;;;;;5072053;28;20084;-42
2022/09/10 08:56:31;;;;;;;7.10;2.40;;;17.10;99.90;;;;;;5054278;28;20025;-48
2022/09/10 08:59:03;;;;;;;6.10;1.98;;;17.10;99.90;;;;;;5071147;28;20054;-44
2022/09/10 09:01:39;;;;;;;8.07;2.00;;;17.00;99.90;;;;;;5071449;28;20024;-45
2022/09/10 09:04:15;;;;;;;;;;;17.00;99.90;;;;;;5075414;28;20021;-44
2022/09/10 09:06:47;;;;;;;7.05;1.95;;;16.90;99.90;;;;;;5075531;28;20022;-43
2022/09/10 09:09:12;;;;;;;10.80;2.42;;;16.90;99.90;;;;;;5075549;28;20052;-47
2022/09/10 09:11:38;;;;;;;5.70;2.08;;;16.90;99.90;;;;;;5075090;28;20087;-44
2022/09/10 09:14:38;;;;;;;8.15;1.90;;;16.90;99.90;;;;;;5075104;28;20029;-44
2022/09/10 09:17:22;;;;;;;6.35;2.00;;;16.90;99.90;;;;;;5075430;28;20024;-44
2022/09/10 09:20:06;;;;;;;4.80;2.30;;;16.90;99.90;;;;;;5075574;28;20055;-44
2022/09/10 09:22:53;;;;;;;6.72;1.92;;;16.90;99.90;;;;;;5074707;28;20046;-46
2022/09/10 09:25:27;;;;;;;5.97;2.08;;;16.90;99.90;;;;;;5075077;28;20029;-47
2022/09/10 09:27:57;;;;;;;5.05;1.92;;;17.00;99.90;;;;;;5074914;28;20021;-49
2022/09/10 09:30:41;;;;;;;3.50;1.70;;;17.00;99.90;;;;;;5075234;28;20472;-48
2022/09/10 09:33:13;;;;;;;12.00;2.47;;;17.00;99.90;;;;;;5074730;28;20052;-45
2022/09/10 09:35:56;;;;;;;10.35;2.40;;;17.00;99.90;;;;;;5075405;28;20112;-43
2022/09/10 09:38:30;;;;;;;8.07;2.53;;;17.00;99.90;;;;;;5074943;28;20373;-49
2022/09/10 09:41:06;;;;;;;6.25;2.25;;;17.10;99.90;;;;;;5074920;28;20354;-40
2022/09/10 09:43:48;;;;;;;4.63;2.10;;;17.10;99.90;;;;;;5056480;28;20036;-46
2022/09/10 09:46:17;;;;;;;8.20;2.42;;;17.10;99.90;;;;;;5074886;28;20029;-45
2022/09/10 09:48:44;;;;;;;6.20;2.50;;;17.00;99.90;;;;;;5074843;28;20476;-47
2022/09/10 09:51:12;;;;;;;8.15;2.60;;;16.90;99.90;;;;;;5074673;28;20025;-45
2022/09/10 09:53:39;;;;;;;7.30;2.70;;;17.00;99.90;;;;;;5074040;28;20082;-39
2022/09/10 09:56:18;;;;;;;4.75;2.20;;;17.00;99.90;;;;;;5074549;28;20082;-48
2022/09/10 09:58:48;;;;;;;6.25;2.42;;;16.90;99.90;;;;;;5073974;28;20373;-45
2022/09/10 10:01:17;;;;;;;4.65;2.03;;;16.90;99.90;;;;;;5056608;28;20028;-45
2022/09/10 10:03:49;;;;;;;5.93;1.95;;;17.00;99.90;;;;;;5074117;28;20530;-44
2022/09/10 10:06:16;;;;;;;4.22;1.60;;;17.00;99.90;;;;;;5074754;28;20120;-43
2022/09/10 10:08:53;;;;;;;5.32;2.80;;;17.00;99.90;;;;;;5074826;28;20025;-48
2022/09/10 10:11:20;;;;;;;8.60;1.88;;;16.90;99.90;;;;;;5074446;28;20070;-45
2022/09/10 10:13:50;;;;;;;4.13;1.90;;;17.10;99.90;;;;;;5086976;22;20044;-48
2022/09/10 10:16:35;;;;;;;5.75;2.38;;;17.10;99.90;;;;;;5074218;28;20032;-43
2022/09/10 10:19:01;;;;;;;6.90;2.95;;;17.10;99.90;;;;;;5074254;28;20025;-45
2022/09/10 10:21:32;;;;;;;4.53;1.98;;;17.00;99.90;;;;;;5056297;28;20078;-44
2022/09/10 10:23:57;;;;;;;8.73;2.58;;;17.00;99.90;;;;;;5056034;28;20025;-45
2022/09/10 10:26:27;;;;;;;5.25;2.15;;;17.00;99.90;;;;;;5073952;28;20552;-48
2022/09/10 10:29:00;;;;;;;6.10;2.22;;;16.90;99.90;;;;;;5073772;28;20115;-44
2022/09/10 10:31:39;;;;;;;9.52;2.30;;;16.80;99.90;;;;;;5039501;28;20078;-45
2022/09/10 10:34:13;;;;;;;7.82;2.20;;;16.90;99.90;;;;;;5055543;28;20032;-51
2022/09/10 10:37:08;;;;;;;6.35;2.60;;;16.90;99.90;;;;;;5073496;28;20039;-44
2022/09/10 10:39:39;;;;;;;5.63;3.03;;;16.80;99.90;;;;;;5074076;28;20527;-44
2022/09/10 10:42:14;;;;;;;7.25;2.53;;;16.70;99.90;;;;;;5073403;28;20357;-45
2022/09/10 10:44:54;;;;;;;6.45;2.47;;;16.70;99.90;;;;;;5073969;28;20028;-45
2022/09/10 10:47:45;;;;;;;3.65;2.17;;;16.60;99.90;;;;;;5074110;28;20025;-44
2022/09/10 10:50:43;;;;;;;5.53;2.50;;;16.60;99.90;;;;;;5055700;28;20016;-44
2022/09/10 10:53:37;;;;;;;9.55;2.85;;;16.60;99.90;;;;;;5032186;28;20511;-46
2022/09/10 10:56:31;;;;;;;7.13;2.95;;;16.70;99.90;;;;;;5064575;28;20063;-43
2022/09/10 10:59:22;;;;;;;5.93;2.50;;;16.80;99.90;;;;;;5073199;28;20028;-45
2022/09/10 11:01:59;;;;;;;6.10;2.40;;;16.90;99.90;;;;;;5073464;28;20036;-44
2022/09/10 11:04:38;;;;;;;4.43;2.53;;;17.00;99.90;;;;;;5073643;28;20039;-44
2022/09/10 11:07:13;;;;;;;3.65;1.67;;;17.10;99.90;;;;;;5073785;28;20441;-44
2022/09/10 11:09:50;;;;;;;4.13;2.00;;;17.30;99.90;;;;;;5073432;28;20411;-44
2022/09/10 11:12:24;;;;;;;2.55;1.90;;;17.40;99.90;;;;;;5073256;28;20385;-46
2022/09/10 11:15:00;;;;;;;5.10;2.28;;;17.40;99.90;;;;;;5073741;28;20066;-44
2022/09/10 11:17:46;;;;;;;6.40;2.05;;;17.50;99.90;;;;;;5073344;28;20031;-46
2022/09/10 11:20:22;;;;;;;3.35;1.70;;;17.70;99.90;;;;;;5073371;28;20021;-45
2022/09/10 11:23:21;;;;;;;2.38;1.70;;;17.80;99.90;;;;;;5072687;28;20032;-44
2022/09/10 11:25:49;;;;;;;2.53;1.10;;;18.00;99.90;;;;;;5072721;28;20032;-46
2022/09/10 11:28:21;;;;;;;3.67;1.20;;;18.30;99.90;;;;;;5072997;28;20040;-47
2022/09/10 11:30:53;;;;;;;3.33;1.02;;;18.50;99.90;;;;;;5072767;28;20040;-46
2022/09/10 11:33:23;;;;;;;2.00;1.10;;;18.60;99.90;;;;;;5054748;28;20021;-45
2022/09/10 11:35:55;;;;;;;1.25;0.77;;;18.70;99.90;;;;;;5072859;28;20030;-45
2022/09/10 11:38:48;;;;;;;3.92;1.02;;;18.80;99.90;;;;;;5072451;28;20110;-46
2022/09/10 11:41:28;;;;;;;2.70;1.00;;;18.90;99.90;;;;;;5072187;28;20028;-45
2022/09/10 11:44:06;;;;;;;0.60;0.55;;;18.90;99.90;;;;;;5054255;28;20024;-45
2022/09/10 11:46:39;;;;;;;1.85;0.60;;;18.80;99.90;;;;;;5072369;28;20024;-45
2022/09/10 11:49:10;;;;;;;1.15;0.50;;;18.80;99.90;;;;;;5072747;28;20021;-46
2022/09/10 11:51:37;;;;;;;0.98;0.50;;;18.80;99.90;;;;;;5072291;28;20443;-45
2022/09/10 11:54:08;;;;;;;1.08;0.50;;;18.80;99.90;;;;;;5071843;28;20430;-44
2022/09/10 11:56:58;;;;;;;6.28;0.80;;;18.80;99.90;;;;;;5071999;28;20047;-47
2022/09/10 11:59:29;;;;;;;0.88;0.63;;;18.90;99.90;;;;;;5072126;28;20017;-46
2022/09/10 12:02:19;;;;;;;1.83;0.55;;;19.00;99.90;;;;;;5071794;28;20060;-46
2022/09/10 12:04:52;;;;;;;0.60;0.45;;;19.00;99.90;;;;;;5054184;28;20123;-49
2022/09/10 12:07:48;;;;;;;2.83;0.93;;;19.10;99.90;;;;;;5074534;28;20024;-43
2022/09/10 12:10:31;;;;;;;1.53;0.50;;;19.10;99.90;;;;;;5072578;28;20021;-47
2022/09/10 12:12:57;;;;;;;1.10;0.52;;;19.20;99.90;;;;;;5071210;28;20267;-46
2022/09/10 12:15:25;;;;;;;1.20;0.80;;;19.20;99.90;;;;;;5071293;28;20029;-45
2022/09/10 12:18:06;;;;;;;0.93;0.60;;;19.30;99.90;;;;;;5071002;28;20526;-44
2022/09/10 12:20:51;;;;;;;1.80;0.70;;;19.30;99.90;;;;;;5071024;28;20028;-44
2022/09/10 12:23:26;;;;;;;1.05;0.95;;;19.30;99.90;;;;;;5070845;28;20027;-45
2022/09/10 12:25:59;;;;;;;3.60;1.05;;;19.30;99.90;;;;;;5070843;28;20050;-44
2022/09/10 12:28:40;;;;;;;2.30;0.63;;;19.30;99.90;;;;;;5070788;28;20446;-45
2022/09/10 12:31:07;;;;;;;0.30;0.30;;;19.40;99.90;;;;;;5053006;28;20021;-48
2022/09/10 12:33:42;;;;;;;0.40;0.40;;;19.50;99.90;;;;;;5070795;28;20078;-46
2022/09/10 12:36:08;;;;;;;0.60;0.60;;;19.50;99.90;;;;;;5070348;28;20403;-47
2022/09/10 12:39:11;;;;;;;0.30;0.30;;;19.60;99.90;;;;;;5070071;28;20435;-46
2022/09/10 12:41:37;;;;;;;0.93;0.30;;;19.70;99.90;;;;;;5070623;28;20442;-46
2022/09/10 12:44:25;;;;;;;0.88;0.30;;;19.70;99.90;;;;;;5070381;28;20024;-47
2022/09/10 12:47:12;;;;;;;0.68;0.50;;;19.70;99.90;;;;;;5070352;28;20447;-46
2022/09/10 12:49:45;;;;;;;1.88;0.40;;;19.70;99.90;;;;;;5052297;28;20058;-44
2022/09/10 12:52:12;;;;;;;2.15;0.50;;;19.70;99.90;;;;;;5070395;28;20023;-48
2022/09/10 12:54:45;;;;;;;0.40;0.40;;;19.80;99.90;;;;;;5070755;28;20028;-45
2022/09/10 12:57:37;;;;;;;0.73;0.40;;;19.70;99.90;;;;;;5070470;28;20107;-47
2022/09/10 13:00:12;;;;;;;0.40;0.40;;;19.70;99.90;;;;;;5070538;28;20045;-43
2022/09/10 13:02:48;;;;;;;0.47;0.47;;;19.70;99.90;;;;;;5069846;28;20021;-47
2022/09/10 13:05:30;;;;;;;1.80;0.32;;;19.80;99.90;;;;;;5070349;28;20097;-45
2022/09/10 13:08:10;;;;;;;0.40;0.40;;;19.90;99.90;;;;;;5070256;28;20021;-47